メインページ
METAR-TAF:

METAR-TAF

空港 :

ルイ・アームストロング・ニューオーリンズ国際空港

ニューオーリンズ, ルイジアナ州, アメリカ合衆国

緯度: 29-59-34N, 経度: 090-15-03W, 海抜: 1m

現時点の気象観測

当レポートは26分前の10:53(UTC)に作成
北西の風 9kt
気温 5°C
湿度 93%
気圧 1027 hPa
視程: 11.3km
高度900ftの曇り

METAR: KMSY 141053Z 32009KT 7SM OVC009 05/04 A3032 RMK AO2 SLP270 T00500039

時間: 05:19 (11:19 UTC)

予報

当レポートは5時間2分前の06:17(UTC)に作成
予報は14日の 06時(UTC)から 15日の 12時(UTC)まで有効
北/北西の風 8kt
視程: 9.7km
高度1000ftの曇り
14日の 12時(UTC)から 14日の 15時(UTC)まで一時的に
視程: 6.4km
高度300ftの曇り
小雨
14日の 1500時(UTC)から
北/北西の風 8kt
視程: 10km
高度1000ftの千切れ雲あり
高度2000ftの曇り
14日の 2200時(UTC)から
北西の風 9kt
視程: 10km
高度1500ftの雲は散在している
高度3500ftの千切れ雲あり
15日の 0200時(UTC)から
北/北西の風 10kt、最大18ktの突風を伴う
視程: 10km
高度20000ftの雲は散在している

TAF: KMSY 140617Z 1406/1512 33008KT 6SM BR OVC010 TEMPO 1412/1415 4SM -RA OVC003 FM141500 34008KT P6SM BKN010 OVC020 FM142200 32009KT P6SM SCT015 BKN035 FM150200 33010G18KT P6SM SCT200

4,000以上の空港の気象観測と天気予報(METAR報とTAF報)

利用可能な観測所は地図上に黄色い丸と赤い丸で示す。

丸の上にカーソルを重ねると観測所名を参照できる。

次にクリックすると気象観測と天気予報を参照できる。

マップの切り替え:黒色「×」印の緑ボタンをクリックして拡大、「-」印の緑ボタンをクリックして縮小、緑色の三角印をクリックして隣りの地図に切り替え


METAR-TAF: